sensor_id;sensor_type;location;lat;lon;timestamp;temperature;humidity
44305;DHT22;30019;50.576;8.568;2022-07-06T00:01:45;15.60;97.30
44305;DHT22;30019;50.576;8.568;2022-07-06T00:04:11;15.60;97.50
44305;DHT22;30019;50.576;8.568;2022-07-06T00:06:37;15.50;97.90
44305;DHT22;30019;50.576;8.568;2022-07-06T00:09:04;15.50;98.40
44305;DHT22;30019;50.576;8.568;2022-07-06T00:11:30;15.40;98.60
44305;DHT22;30019;50.576;8.568;2022-07-06T00:13:56;15.40;98.70
44305;DHT22;30019;50.576;8.568;2022-07-06T00:16:25;15.40;99.00
44305;DHT22;30019;50.576;8.568;2022-07-06T00:18:50;15.30;99.40
44305;DHT22;30019;50.576;8.568;2022-07-06T00:21:16;15.30;99.70
44305;DHT22;30019;50.576;8.568;2022-07-06T00:23:42;15.20;99.80
44305;DHT22;30019;50.576;8.568;2022-07-06T00:26:08;15.20;99.90
44305;DHT22;30019;50.576;8.568;2022-07-06T00:28:34;15.20;99.90
44305;DHT22;30019;50.576;8.568;2022-07-06T00:30:59;15.20;99.90
44305;DHT22;30019;50.576;8.568;2022-07-06T00:33:25;15.20;99.90
44305;DHT22;30019;50.576;8.568;2022-07-06T00:35:50;15.20;99.90
44305;DHT22;30019;50.576;8.568;2022-07-06T00:38:16;15.20;99.90
44305;DHT22;30019;50.576;8.568;2022-07-06T00:40:42;15.20;99.90
44305;DHT22;30019;50.576;8.568;2022-07-06T00:43:07;15.20;99.90
44305;DHT22;30019;50.576;8.568;2022-07-06T00:45:33;15.20;99.90
44305;DHT22;30019;50.576;8.568;2022-07-06T00:47:59;15.10;99.90
44305;DHT22;30019;50.576;8.568;2022-07-06T00:50:24;15.00;99.90
44305;DHT22;30019;50.576;8.568;2022-07-06T00:52:55;14.90;99.90
44305;DHT22;30019;50.576;8.568;2022-07-06T00:55:23;14.90;99.90
44305;DHT22;30019;50.576;8.568;2022-07-06T00:57:49;14.90;99.90
44305;DHT22;30019;50.576;8.568;2022-07-06T01:00:17;15.00;99.90
44305;DHT22;30019;50.576;8.568;2022-07-06T01:02:44;15.00;99.90
44305;DHT22;30019;50.576;8.568;2022-07-06T01:05:11;15.00;99.90
44305;DHT22;30019;50.576;8.568;2022-07-06T01:07:38;15.00;99.90
44305;DHT22;30019;50.576;8.568;2022-07-06T01:10:05;15.00;99.90
44305;DHT22;30019;50.576;8.568;2022-07-06T01:12:32;15.00;99.90
44305;DHT22;30019;50.576;8.568;2022-07-06T01:14:59;14.90;99.90
44305;DHT22;30019;50.576;8.568;2022-07-06T01:17:25;14.90;99.90
44305;DHT22;30019;50.576;8.568;2022-07-06T01:19:51;14.80;99.90
44305;DHT22;30019;50.576;8.568;2022-07-06T01:22:17;14.70;99.90
44305;DHT22;30019;50.576;8.568;2022-07-06T01:24:42;14.70;99.90
44305;DHT22;30019;50.576;8.568;2022-07-06T01:27:08;14.60;99.90
44305;DHT22;30019;50.576;8.568;2022-07-06T01:29:34;14.60;99.90
44305;DHT22;30019;50.576;8.568;2022-07-06T01:32:00;14.60;99.90
44305;DHT22;30019;50.576;8.568;2022-07-06T01:34:26;14.50;99.90
44305;DHT22;30019;50.576;8.568;2022-07-06T01:36:52;14.50;99.90
44305;DHT22;30019;50.576;8.568;2022-07-06T01:39:18;14.30;99.90
44305;DHT22;30019;50.576;8.568;2022-07-06T01:41:44;14.30;99.90
44305;DHT22;30019;50.576;8.568;2022-07-06T01:44:10;14.20;99.90
44305;DHT22;30019;50.576;8.568;2022-07-06T01:46:36;14.10;99.90
44305;DHT22;30019;50.576;8.568;2022-07-06T01:49:01;14.10;99.90
44305;DHT22;30019;50.576;8.568;2022-07-06T01:51:27;14.00;99.90
44305;DHT22;30019;50.576;8.568;2022-07-06T01:53:53;14.00;99.90
44305;DHT22;30019;50.576;8.568;2022-07-06T01:56:19;14.00;99.90
44305;DHT22;30019;50.576;8.568;2022-07-06T01:58:46;13.90;99.90
44305;DHT22;30019;50.576;8.568;2022-07-06T02:01:14;13.80;99.90
44305;DHT22;30019;50.576;8.568;2022-07-06T02:03:40;13.80;99.90
44305;DHT22;30019;50.576;8.568;2022-07-06T02:06:07;13.70;99.90
44305;DHT22;30019;50.576;8.568;2022-07-06T02:08:33;13.70;99.90
44305;DHT22;30019;50.576;8.568;2022-07-06T02:10:59;13.60;99.90
44305;DHT22;30019;50.576;8.568;2022-07-06T02:13:25;13.60;99.90
44305;DHT22;30019;50.576;8.568;2022-07-06T02:15:51;13.50;99.90
44305;DHT22;30019;50.576;8.568;2022-07-06T02:18:16;13.50;99.90
44305;DHT22;30019;50.576;8.568;2022-07-06T02:20:42;13.50;99.90
44305;DHT22;30019;50.576;8.568;2022-07-06T02:23:08;13.50;99.90
44305;DHT22;30019;50.576;8.568;2022-07-06T02:25:33;13.40;99.90
44305;DHT22;30019;50.576;8.568;2022-07-06T02:27:59;13.50;99.90
44305;DHT22;30019;50.576;8.568;2022-07-06T02:30:24;13.40;99.90
44305;DHT22;30019;50.576;8.568;2022-07-06T02:32:50;13.40;99.90
44305;DHT22;30019;50.576;8.568;2022-07-06T02:35:16;13.30;99.90
44305;DHT22;30019;50.576;8.568;2022-07-06T02:37:42;13.30;99.90
44305;DHT22;30019;50.576;8.568;2022-07-06T02:40:08;13.30;99.90
44305;DHT22;30019;50.576;8.568;2022-07-06T02:42:34;13.40;99.90
44305;DHT22;30019;50.576;8.568;2022-07-06T02:44:59;13.50;99.90
44305;DHT22;30019;50.576;8.568;2022-07-06T02:47:25;13.50;99.90
44305;DHT22;30019;50.576;8.568;2022-07-06T02:49:51;13.50;99.90
44305;DHT22;30019;50.576;8.568;2022-07-06T02:52:17;13.40;99.90
44305;DHT22;30019;50.576;8.568;2022-07-06T02:54:43;13.40;99.90
44305;DHT22;30019;50.576;8.568;2022-07-06T02:57:09;13.40;99.90
44305;DHT22;30019;50.576;8.568;2022-07-06T02:59:34;13.40;99.90
44305;DHT22;30019;50.576;8.568;2022-07-06T03:02:00;13.40;99.90
44305;DHT22;30019;50.576;8.568;2022-07-06T03:04:25;13.40;99.90
44305;DHT22;30019;50.576;8.568;2022-07-06T03:06:51;13.40;99.90
44305;DHT22;30019;50.576;8.568;2022-07-06T03:09:16;13.30;99.90
44305;DHT22;30019;50.576;8.568;2022-07-06T03:11:42;13.30;99.90
44305;DHT22;30019;50.576;8.568;2022-07-06T03:14:07;13.30;99.90
44305;DHT22;30019;50.576;8.568;2022-07-06T03:16:33;13.30;99.90
44305;DHT22;30019;50.576;8.568;2022-07-06T03:18:58;13.40;99.90
44305;DHT22;30019;50.576;8.568;2022-07-06T03:21:25;13.40;99.90
44305;DHT22;30019;50.576;8.568;2022-07-06T03:23:50;13.40;99.90
44305;DHT22;30019;50.576;8.568;2022-07-06T03:26:51;13.40;99.90
44305;DHT22;30019;50.576;8.568;2022-07-06T03:29:18;13.40;99.90
44305;DHT22;30019;50.576;8.568;2022-07-06T03:31:43;13.40;99.90
44305;DHT22;30019;50.576;8.568;2022-07-06T03:34:09;13.40;99.90
44305;DHT22;30019;50.576;8.568;2022-07-06T03:36:34;13.40;99.90
44305;DHT22;30019;50.576;8.568;2022-07-06T03:39:00;13.60;99.90
44305;DHT22;30019;50.576;8.568;2022-07-06T03:41:26;13.60;99.90
44305;DHT22;30019;50.576;8.568;2022-07-06T03:43:51;13.70;99.90
44305;DHT22;30019;50.576;8.568;2022-07-06T03:46:17;13.80;99.90
44305;DHT22;30019;50.576;8.568;2022-07-06T03:48:42;13.80;99.90
44305;DHT22;30019;50.576;8.568;2022-07-06T03:51:08;13.80;99.90
44305;DHT22;30019;50.576;8.568;2022-07-06T03:53:35;13.80;99.90
44305;DHT22;30019;50.576;8.568;2022-07-06T03:56:01;13.90;99.90
44305;DHT22;30019;50.576;8.568;2022-07-06T03:58:46;13.90;99.90
44305;DHT22;30019;50.576;8.568;2022-07-06T04:01:11;14.00;99.90
44305;DHT22;30019;50.576;8.568;2022-07-06T04:03:37;14.00;99.90
44305;DHT22;30019;50.576;8.568;2022-07-06T04:06:02;14.00;99.90
44305;DHT22;30019;50.576;8.568;2022-07-06T04:08:28;14.00;99.90
44305;DHT22;30019;50.576;8.568;2022-07-06T04:10:54;14.00;99.90
44305;DHT22;30019;50.576;8.568;2022-07-06T04:13:19;13.90;99.90
44305;DHT22;30019;50.576;8.568;2022-07-06T04:15:45;14.00;99.90
44305;DHT22;30019;50.576;8.568;2022-07-06T04:18:10;14.00;99.90
44305;DHT22;30019;50.576;8.568;2022-07-06T04:20:42;14.00;99.90
44305;DHT22;30019;50.576;8.568;2022-07-06T04:23:08;14.00;99.90
44305;DHT22;30019;50.576;8.568;2022-07-06T04:25:34;14.00;99.90
44305;DHT22;30019;50.576;8.568;2022-07-06T04:27:59;14.00;99.90
44305;DHT22;30019;50.576;8.568;2022-07-06T04:30:25;14.00;99.90
44305;DHT22;30019;50.576;8.568;2022-07-06T04:32:51;14.00;99.90
44305;DHT22;30019;50.576;8.568;2022-07-06T04:35:16;14.00;99.90
44305;DHT22;30019;50.576;8.568;2022-07-06T04:38:01;14.00;99.90
44305;DHT22;30019;50.576;8.568;2022-07-06T04:40:32;14.00;99.90
44305;DHT22;30019;50.576;8.568;2022-07-06T04:42:57;13.90;99.90
44305;DHT22;30019;50.576;8.568;2022-07-06T04:45:23;13.90;99.90
44305;DHT22;30019;50.576;8.568;2022-07-06T04:47:48;13.90;99.90
44305;DHT22;30019;50.576;8.568;2022-07-06T04:50:14;13.80;99.90
44305;DHT22;30019;50.576;8.568;2022-07-06T04:52:42;13.80;99.90
44305;DHT22;30019;50.576;8.568;2022-07-06T04:55:08;13.80;99.90
44305;DHT22;30019;50.576;8.568;2022-07-06T04:57:34;13.80;99.90
44305;DHT22;30019;50.576;8.568;2022-07-06T05:00:03;13.80;99.90
44305;DHT22;30019;50.576;8.568;2022-07-06T05:02:29;13.90;99.90
44305;DHT22;30019;50.576;8.568;2022-07-06T05:04:54;14.00;99.90
44305;DHT22;30019;50.576;8.568;2022-07-06T05:07:20;14.10;99.90
44305;DHT22;30019;50.576;8.568;2022-07-06T05:09:46;14.30;99.90
44305;DHT22;30019;50.576;8.568;2022-07-06T05:12:11;14.50;99.90
44305;DHT22;30019;50.576;8.568;2022-07-06T05:14:37;14.70;99.90
44305;DHT22;30019;50.576;8.568;2022-07-06T05:17:02;14.70;99.90
44305;DHT22;30019;50.576;8.568;2022-07-06T05:19:28;14.80;99.90
44305;DHT22;30019;50.576;8.568;2022-07-06T05:21:54;14.80;99.90
44305;DHT22;30019;50.576;8.568;2022-07-06T05:24:19;14.70;99.90
44305;DHT22;30019;50.576;8.568;2022-07-06T05:26:46;14.80;99.90
44305;DHT22;30019;50.576;8.568;2022-07-06T05:29:11;14.80;99.90
44305;DHT22;30019;50.576;8.568;2022-07-06T05:31:38;15.00;99.90
44305;DHT22;30019;50.576;8.568;2022-07-06T05:34:37;15.30;99.90
44305;DHT22;30019;50.576;8.568;2022-07-06T05:37:03;15.50;99.90
44305;DHT22;30019;50.576;8.568;2022-07-06T05:39:29;15.40;99.90
44305;DHT22;30019;50.576;8.568;2022-07-06T05:41:54;15.30;99.90
44305;DHT22;30019;50.576;8.568;2022-07-06T05:44:20;15.20;99.90
44305;DHT22;30019;50.576;8.568;2022-07-06T05:46:45;15.20;99.90
44305;DHT22;30019;50.576;8.568;2022-07-06T05:49:45;15.10;99.90
44305;DHT22;30019;50.576;8.568;2022-07-06T05:52:29;15.10;99.90
44305;DHT22;30019;50.576;8.568;2022-07-06T05:54:55;15.20;99.90
44305;DHT22;30019;50.576;8.568;2022-07-06T05:57:21;15.30;99.90
44305;DHT22;30019;50.576;8.568;2022-07-06T05:59:46;15.50;99.90
44305;DHT22;30019;50.576;8.568;2022-07-06T06:02:12;15.60;99.90
44305;DHT22;30019;50.576;8.568;2022-07-06T06:07:45;15.90;99.90
44305;DHT22;30019;50.576;8.568;2022-07-06T06:10:17;16.00;99.90
44305;DHT22;30019;50.576;8.568;2022-07-06T06:12:44;16.20;99.90
44305;DHT22;30019;50.576;8.568;2022-07-06T06:15:10;16.10;99.90
44305;DHT22;30019;50.576;8.568;2022-07-06T06:17:36;16.00;99.90
44305;DHT22;30019;50.576;8.568;2022-07-06T06:20:03;15.90;99.90
44305;DHT22;30019;50.576;8.568;2022-07-06T06:22:29;15.90;99.90
44305;DHT22;30019;50.576;8.568;2022-07-06T06:25:34;15.90;99.90
44305;DHT22;30019;50.576;8.568;2022-07-06T06:28:00;15.80;99.90
44305;DHT22;30019;50.576;8.568;2022-07-06T06:30:37;15.70;99.90
44305;DHT22;30019;50.576;8.568;2022-07-06T06:33:09;15.70;99.90
44305;DHT22;30019;50.576;8.568;2022-07-06T06:35:35;15.60;99.90
44305;DHT22;30019;50.576;8.568;2022-07-06T06:38:01;15.50;99.90
44305;DHT22;30019;50.576;8.568;2022-07-06T06:40:27;15.50;99.90
44305;DHT22;30019;50.576;8.568;2022-07-06T06:43:02;15.60;99.90
44305;DHT22;30019;50.576;8.568;2022-07-06T06:45:46;15.80;99.90
44305;DHT22;30019;50.576;8.568;2022-07-06T06:48:12;16.00;99.90
44305;DHT22;30019;50.576;8.568;2022-07-06T06:50:37;16.10;99.90
44305;DHT22;30019;50.576;8.568;2022-07-06T06:53:03;16.00;99.90
44305;DHT22;30019;50.576;8.568;2022-07-06T06:55:28;16.00;99.90
44305;DHT22;30019;50.576;8.568;2022-07-06T06:57:54;16.20;99.90
44305;DHT22;30019;50.576;8.568;2022-07-06T07:00:20;16.30;99.90
44305;DHT22;30019;50.576;8.568;2022-07-06T07:02:45;16.70;99.90
44305;DHT22;30019;50.576;8.568;2022-07-06T07:05:12;16.70;99.40
44305;DHT22;30019;50.576;8.568;2022-07-06T07:07:38;16.80;99.20
44305;DHT22;30019;50.576;8.568;2022-07-06T07:10:04;17.00;98.50
44305;DHT22;30019;50.576;8.568;2022-07-06T07:12:30;17.30;97.90
44305;DHT22;30019;50.576;8.568;2022-07-06T07:14:56;17.30;97.70
44305;DHT22;30019;50.576;8.568;2022-07-06T07:17:21;17.10;97.20
44305;DHT22;30019;50.576;8.568;2022-07-06T07:19:47;17.00;96.80
44305;DHT22;30019;50.576;8.568;2022-07-06T07:22:12;16.90;97.00
44305;DHT22;30019;50.576;8.568;2022-07-06T07:24:38;16.70;96.70
44305;DHT22;30019;50.576;8.568;2022-07-06T07:27:04;16.70;96.90
44305;DHT22;30019;50.576;8.568;2022-07-06T07:29:30;16.70;97.20
44305;DHT22;30019;50.576;8.568;2022-07-06T07:31:56;16.60;97.40
44305;DHT22;30019;50.576;8.568;2022-07-06T07:34:37;16.90;98.30
44305;DHT22;30019;50.576;8.568;2022-07-06T07:37:03;17.20;96.70
44305;DHT22;30019;50.576;8.568;2022-07-06T07:39:29;17.70;95.20
44305;DHT22;30019;50.576;8.568;2022-07-06T07:41:54;17.80;94.30
44305;DHT22;30019;50.576;8.568;2022-07-06T07:44:20;17.60;94.30
44305;DHT22;30019;50.576;8.568;2022-07-06T07:46:45;17.80;94.10
44305;DHT22;30019;50.576;8.568;2022-07-06T07:49:11;17.50;94.30
44305;DHT22;30019;50.576;8.568;2022-07-06T07:51:39;17.60;94.20
44305;DHT22;30019;50.576;8.568;2022-07-06T07:54:06;17.70;94.80
44305;DHT22;30019;50.576;8.568;2022-07-06T07:56:32;17.80;93.30
44305;DHT22;30019;50.576;8.568;2022-07-06T07:58:57;18.10;92.90
44305;DHT22;30019;50.576;8.568;2022-07-06T08:01:23;18.30;91.00
44305;DHT22;30019;50.576;8.568;2022-07-06T08:03:49;18.70;91.20
44305;DHT22;30019;50.576;8.568;2022-07-06T08:06:14;18.90;90.70
44305;DHT22;30019;50.576;8.568;2022-07-06T08:08:40;18.40;90.50
44305;DHT22;30019;50.576;8.568;2022-07-06T08:11:05;17.90;91.10
44305;DHT22;30019;50.576;8.568;2022-07-06T08:13:32;17.90;91.20
44305;DHT22;30019;50.576;8.568;2022-07-06T08:15:58;18.80;90.30
44305;DHT22;30019;50.576;8.568;2022-07-06T08:18:25;19.50;86.90
44305;DHT22;30019;50.576;8.568;2022-07-06T08:20:53;19.80;84.30
44305;DHT22;30019;50.576;8.568;2022-07-06T08:23:46;19.20;85.60
44305;DHT22;30019;50.576;8.568;2022-07-06T08:30:16;19.10;89.20
44305;DHT22;30019;50.576;8.568;2022-07-06T08:32:42;19.70;82.00
44305;DHT22;30019;50.576;8.568;2022-07-06T08:35:09;20.00;80.80
44305;DHT22;30019;50.576;8.568;2022-07-06T08:37:35;20.30;79.30
44305;DHT22;30019;50.576;8.568;2022-07-06T08:40:00;20.60;77.70
44305;DHT22;30019;50.576;8.568;2022-07-06T08:42:30;21.50;79.30
44305;DHT22;30019;50.576;8.568;2022-07-06T08:45:06;21.50;76.10
44305;DHT22;30019;50.576;8.568;2022-07-06T08:47:35;22.20;75.80
44305;DHT22;30019;50.576;8.568;2022-07-06T08:50:04;22.00;76.00
44305;DHT22;30019;50.576;8.568;2022-07-06T08:52:58;22.10;72.30
44305;DHT22;30019;50.576;8.568;2022-07-06T08:55:31;21.40;74.90
44305;DHT22;30019;50.576;8.568;2022-07-06T08:58:24;21.20;76.10
44305;DHT22;30019;50.576;8.568;2022-07-06T09:00:57;21.70;74.00
44305;DHT22;30019;50.576;8.568;2022-07-06T09:03:29;21.80;73.60
44305;DHT22;30019;50.576;8.568;2022-07-06T09:05:59;21.20;72.60
44305;DHT22;30019;50.576;8.568;2022-07-06T09:08:27;20.90;74.20
44305;DHT22;30019;50.576;8.568;2022-07-06T09:10:55;21.20;74.80
44305;DHT22;30019;50.576;8.568;2022-07-06T09:13:20;21.10;75.30
44305;DHT22;30019;50.576;8.568;2022-07-06T09:15:46;21.30;73.30
44305;DHT22;30019;50.576;8.568;2022-07-06T09:18:11;21.10;73.50
44305;DHT22;30019;50.576;8.568;2022-07-06T09:20:37;20.80;72.20
44305;DHT22;30019;50.576;8.568;2022-07-06T09:26:25;20.70;72.70
44305;DHT22;30019;50.576;8.568;2022-07-06T09:28:51;20.50;73.20
44305;DHT22;30019;50.576;8.568;2022-07-06T09:31:17;20.40;73.20
44305;DHT22;30019;50.576;8.568;2022-07-06T09:33:56;20.00;75.40
44305;DHT22;30019;50.576;8.568;2022-07-06T09:41:40;20.50;72.70
44305;DHT22;30019;50.576;8.568;2022-07-06T09:44:06;20.50;70.70
44305;DHT22;30019;50.576;8.568;2022-07-06T09:46:46;21.00;72.30
44305;DHT22;30019;50.576;8.568;2022-07-06T09:49:19;21.10;70.80
44305;DHT22;30019;50.576;8.568;2022-07-06T09:52:02;21.30;68.00
44305;DHT22;30019;50.576;8.568;2022-07-06T09:54:28;21.30;69.30
44305;DHT22;30019;50.576;8.568;2022-07-06T09:56:55;21.20;71.00
44305;DHT22;30019;50.576;8.568;2022-07-06T09:59:23;21.10;70.70
44305;DHT22;30019;50.576;8.568;2022-07-06T10:01:57;21.20;69.30
44305;DHT22;30019;50.576;8.568;2022-07-06T10:04:23;20.80;70.00
44305;DHT22;30019;50.576;8.568;2022-07-06T10:06:49;21.10;71.00
44305;DHT22;30019;50.576;8.568;2022-07-06T10:09:15;21.40;69.10
44305;DHT22;30019;50.576;8.568;2022-07-06T10:11:48;21.70;67.80
44305;DHT22;30019;50.576;8.568;2022-07-06T10:14:17;21.60;68.10
44305;DHT22;30019;50.576;8.568;2022-07-06T10:16:45;21.50;67.10
44305;DHT22;30019;50.576;8.568;2022-07-06T10:19:11;20.60;67.60
44305;DHT22;30019;50.576;8.568;2022-07-06T10:21:39;20.60;69.90
44305;DHT22;30019;50.576;8.568;2022-07-06T10:24:06;20.80;67.50
44305;DHT22;30019;50.576;8.568;2022-07-06T10:26:33;20.40;68.70
44305;DHT22;30019;50.576;8.568;2022-07-06T10:29:00;20.60;68.80
44305;DHT22;30019;50.576;8.568;2022-07-06T10:31:27;20.90;67.90
44305;DHT22;30019;50.576;8.568;2022-07-06T10:34:00;21.30;66.90
44305;DHT22;30019;50.576;8.568;2022-07-06T10:36:27;21.60;67.70
44305;DHT22;30019;50.576;8.568;2022-07-06T10:38:58;22.60;64.10
44305;DHT22;30019;50.576;8.568;2022-07-06T10:49:03;24.20;60.30
44305;DHT22;30019;50.576;8.568;2022-07-06T10:52:22;24.60;58.50
44305;DHT22;30019;50.576;8.568;2022-07-06T10:54:48;24.70;57.80
44305;DHT22;30019;50.576;8.568;2022-07-06T10:57:14;24.40;57.20
44305;DHT22;30019;50.576;8.568;2022-07-06T10:59:40;24.70;56.40
44305;DHT22;30019;50.576;8.568;2022-07-06T11:02:15;23.50;60.40
44305;DHT22;30019;50.576;8.568;2022-07-06T11:04:43;23.00;58.60
44305;DHT22;30019;50.576;8.568;2022-07-06T11:07:12;22.30;60.70
44305;DHT22;30019;50.576;8.568;2022-07-06T11:09:38;21.70;62.70
44305;DHT22;30019;50.576;8.568;2022-07-06T11:12:20;21.20;64.50
44305;DHT22;30019;50.576;8.568;2022-07-06T11:14:47;21.20;65.00
44305;DHT22;30019;50.576;8.568;2022-07-06T11:17:14;22.70;63.10
44305;DHT22;30019;50.576;8.568;2022-07-06T11:19:56;24.10;60.30
44305;DHT22;30019;50.576;8.568;2022-07-06T11:22:22;25.50;56.30
44305;DHT22;30019;50.576;8.568;2022-07-06T11:25:11;24.90;55.50
44305;DHT22;30019;50.576;8.568;2022-07-06T11:27:46;25.60;55.80
44305;DHT22;30019;50.576;8.568;2022-07-06T11:30:22;25.40;53.60
44305;DHT22;30019;50.576;8.568;2022-07-06T11:32:47;25.10;56.50
44305;DHT22;30019;50.576;8.568;2022-07-06T11:35:21;25.30;55.00
44305;DHT22;30019;50.576;8.568;2022-07-06T11:37:49;24.30;56.20
44305;DHT22;30019;50.576;8.568;2022-07-06T11:40:18;24.50;57.00
44305;DHT22;30019;50.576;8.568;2022-07-06T11:42:53;24.90;54.30
44305;DHT22;30019;50.576;8.568;2022-07-06T11:45:40;26.80;53.50
44305;DHT22;30019;50.576;8.568;2022-07-06T12:01:27;22.00;62.90
44305;DHT22;30019;50.576;8.568;2022-07-06T12:04:14;21.50;64.60
44305;DHT22;30019;50.576;8.568;2022-07-06T12:06:40;21.90;65.80
44305;DHT22;30019;50.576;8.568;2022-07-06T12:09:10;21.60;66.20
44305;DHT22;30019;50.576;8.568;2022-07-06T12:12:20;21.60;65.60
44305;DHT22;30019;50.576;8.568;2022-07-06T12:15:30;21.40;65.10
44305;DHT22;30019;50.576;8.568;2022-07-06T12:18:16;21.80;66.50
44305;DHT22;30019;50.576;8.568;2022-07-06T12:20:42;21.80;63.60
44305;DHT22;30019;50.576;8.568;2022-07-06T12:23:08;21.70;65.20
44305;DHT22;30019;50.576;8.568;2022-07-06T12:25:37;21.80;65.30
44305;DHT22;30019;50.576;8.568;2022-07-06T12:28:05;21.50;63.50
44305;DHT22;30019;50.576;8.568;2022-07-06T12:30:31;21.50;64.20
44305;DHT22;30019;50.576;8.568;2022-07-06T12:33:13;21.10;64.20
44305;DHT22;30019;50.576;8.568;2022-07-06T12:35:45;20.90;64.40
44305;DHT22;30019;50.576;8.568;2022-07-06T12:38:11;21.10;64.80
44305;DHT22;30019;50.576;8.568;2022-07-06T12:40:37;21.10;64.30
44305;DHT22;30019;50.576;8.568;2022-07-06T12:43:04;21.20;63.30
44305;DHT22;30019;50.576;8.568;2022-07-06T12:45:31;21.20;62.80
44305;DHT22;30019;50.576;8.568;2022-07-06T12:48:06;21.30;62.90
44305;DHT22;30019;50.576;8.568;2022-07-06T12:50:32;21.10;63.60
44305;DHT22;30019;50.576;8.568;2022-07-06T12:52:59;21.10;62.70
44305;DHT22;30019;50.576;8.568;2022-07-06T12:55:28;21.70;65.00
44305;DHT22;30019;50.576;8.568;2022-07-06T12:57:55;21.90;60.70
44305;DHT22;30019;50.576;8.568;2022-07-06T13:00:24;21.90;61.60
44305;DHT22;30019;50.576;8.568;2022-07-06T13:02:57;21.70;60.40
44305;DHT22;30019;50.576;8.568;2022-07-06T13:05:26;21.80;62.90
44305;DHT22;30019;50.576;8.568;2022-07-06T13:07:56;22.50;60.40
44305;DHT22;30019;50.576;8.568;2022-07-06T13:10:23;23.10;58.20
44305;DHT22;30019;50.576;8.568;2022-07-06T13:12:49;23.00;58.20
44305;DHT22;30019;50.576;8.568;2022-07-06T13:15:15;22.50;61.10
44305;DHT22;30019;50.576;8.568;2022-07-06T13:17:50;22.00;62.90
44305;DHT22;30019;50.576;8.568;2022-07-06T13:20:16;21.70;63.60
44305;DHT22;30019;50.576;8.568;2022-07-06T13:22:44;21.60;64.40
44305;DHT22;30019;50.576;8.568;2022-07-06T13:25:10;21.50;65.30
44305;DHT22;30019;50.576;8.568;2022-07-06T13:27:38;21.50;65.10
44305;DHT22;30019;50.576;8.568;2022-07-06T13:30:04;21.90;63.00
44305;DHT22;30019;50.576;8.568;2022-07-06T13:32:30;22.00;61.80
44305;DHT22;30019;50.576;8.568;2022-07-06T13:34:55;22.20;61.70
44305;DHT22;30019;50.576;8.568;2022-07-06T13:37:21;22.00;61.80
44305;DHT22;30019;50.576;8.568;2022-07-06T13:39:46;21.90;61.20
44305;DHT22;30019;50.576;8.568;2022-07-06T13:42:12;21.90;62.20
44305;DHT22;30019;50.576;8.568;2022-07-06T13:44:38;21.90;61.50
44305;DHT22;30019;50.576;8.568;2022-07-06T13:47:03;22.00;60.40
44305;DHT22;30019;50.576;8.568;2022-07-06T13:49:29;22.30;59.90
44305;DHT22;30019;50.576;8.568;2022-07-06T13:51:55;22.30;60.70
44305;DHT22;30019;50.576;8.568;2022-07-06T13:54:27;22.50;60.80
44305;DHT22;30019;50.576;8.568;2022-07-06T13:56:53;22.40;61.70
44305;DHT22;30019;50.576;8.568;2022-07-06T13:59:18;21.70;62.30
44305;DHT22;30019;50.576;8.568;2022-07-06T14:01:44;21.30;63.40
44305;DHT22;30019;50.576;8.568;2022-07-06T14:04:09;21.50;65.00
44305;DHT22;30019;50.576;8.568;2022-07-06T14:06:36;21.70;64.00
44305;DHT22;30019;50.576;8.568;2022-07-06T14:09:02;22.10;63.10
44305;DHT22;30019;50.576;8.568;2022-07-06T14:11:27;22.50;61.30
44305;DHT22;30019;50.576;8.568;2022-07-06T14:13:53;22.60;61.10
44305;DHT22;30019;50.576;8.568;2022-07-06T14:16:18;22.50;60.30
44305;DHT22;30019;50.576;8.568;2022-07-06T14:18:44;22.50;58.80
44305;DHT22;30019;50.576;8.568;2022-07-06T14:21:10;22.40;59.10
44305;DHT22;30019;50.576;8.568;2022-07-06T14:23:35;22.40;61.90
44305;DHT22;30019;50.576;8.568;2022-07-06T14:26:01;22.80;60.10
44305;DHT22;30019;50.576;8.568;2022-07-06T14:28:29;21.90;60.80
44305;DHT22;30019;50.576;8.568;2022-07-06T14:30:55;21.70;61.90
44305;DHT22;30019;50.576;8.568;2022-07-06T14:33:20;21.40;62.10
44305;DHT22;30019;50.576;8.568;2022-07-06T14:35:48;21.50;62.40
44305;DHT22;30019;50.576;8.568;2022-07-06T14:38:18;21.30;63.30
44305;DHT22;30019;50.576;8.568;2022-07-06T14:40:44;21.10;63.30
44305;DHT22;30019;50.576;8.568;2022-07-06T14:43:10;21.00;63.90
44305;DHT22;30019;50.576;8.568;2022-07-06T14:45:36;21.20;64.60
44305;DHT22;30019;50.576;8.568;2022-07-06T14:48:02;21.40;63.70
44305;DHT22;30019;50.576;8.568;2022-07-06T14:50:28;21.30;63.90
44305;DHT22;30019;50.576;8.568;2022-07-06T14:52:53;21.40;63.00
44305;DHT22;30019;50.576;8.568;2022-07-06T14:55:19;21.50;63.70
44305;DHT22;30019;50.576;8.568;2022-07-06T14:57:45;21.90;62.50
44305;DHT22;30019;50.576;8.568;2022-07-06T15:00:12;22.00;60.70
44305;DHT22;30019;50.576;8.568;2022-07-06T15:02:38;22.20;61.20
44305;DHT22;30019;50.576;8.568;2022-07-06T15:05:04;21.80;60.40
44305;DHT22;30019;50.576;8.568;2022-07-06T15:07:29;21.60;61.20
44305;DHT22;30019;50.576;8.568;2022-07-06T15:09:55;21.90;62.10
44305;DHT22;30019;50.576;8.568;2022-07-06T15:12:21;22.10;60.80
44305;DHT22;30019;50.576;8.568;2022-07-06T15:14:47;22.20;61.00
44305;DHT22;30019;50.576;8.568;2022-07-06T15:17:12;22.60;60.40
44305;DHT22;30019;50.576;8.568;2022-07-06T15:19:38;22.30;61.60
44305;DHT22;30019;50.576;8.568;2022-07-06T15:22:04;22.80;60.20
44305;DHT22;30019;50.576;8.568;2022-07-06T15:24:29;22.70;58.90
44305;DHT22;30019;50.576;8.568;2022-07-06T15:26:55;22.60;58.50
44305;DHT22;30019;50.576;8.568;2022-07-06T15:29:22;23.10;57.10
44305;DHT22;30019;50.576;8.568;2022-07-06T15:31:47;22.90;57.10
44305;DHT22;30019;50.576;8.568;2022-07-06T15:34:13;22.90;58.90
44305;DHT22;30019;50.576;8.568;2022-07-06T15:36:39;22.80;60.80
44305;DHT22;30019;50.576;8.568;2022-07-06T15:39:04;22.80;59.90
44305;DHT22;30019;50.576;8.568;2022-07-06T15:41:30;22.50;58.70
44305;DHT22;30019;50.576;8.568;2022-07-06T15:43:56;21.90;59.60
44305;DHT22;30019;50.576;8.568;2022-07-06T15:46:23;21.50;62.40
44305;DHT22;30019;50.576;8.568;2022-07-06T15:48:50;21.40;63.10
44305;DHT22;30019;50.576;8.568;2022-07-06T15:51:16;21.50;64.40
44305;DHT22;30019;50.576;8.568;2022-07-06T15:53:42;21.70;64.90
44305;DHT22;30019;50.576;8.568;2022-07-06T15:56:11;21.70;62.50
44305;DHT22;30019;50.576;8.568;2022-07-06T15:58:37;21.80;62.00
44305;DHT22;30019;50.576;8.568;2022-07-06T16:01:03;22.00;63.00
44305;DHT22;30019;50.576;8.568;2022-07-06T16:03:28;22.10;63.30
44305;DHT22;30019;50.576;8.568;2022-07-06T16:05:54;21.90;62.50
44305;DHT22;30019;50.576;8.568;2022-07-06T16:08:20;21.80;63.50
44305;DHT22;30019;50.576;8.568;2022-07-06T16:10:46;21.50;64.20
44305;DHT22;30019;50.576;8.568;2022-07-06T16:13:12;21.40;65.00